Time;durP1;ratioP1;P1;durP2;ratioP2;P2;SDS_P1;SDS_P2;PMS_P1;PMS_P2;Temp;Humidity;BMP_temperature;BMP_pressure;BME280_temperature;BME280_humidity;BME280_pressure;Samples;Min_cycle;Max_cycle;Signal;HPM_P1;HPM_P2
2022/12/17 13:06:49;;;;;;;64.97;35.35;;;1.40;99.90;;;;;;5056194;28;20048;-61
2022/12/17 13:09:19;;;;;;;64.50;33.92;;;1.40;99.90;;;;;;5062856;28;20454;-60
2022/12/17 13:12:10;;;;;;;65.43;35.90;;;1.40;99.90;;;;;;5060794;28;20185;-61
2022/12/17 13:14:51;;;;;;;62.25;34.20;;;1.40;99.90;;;;;;5056381;28;20574;-60
2022/12/17 13:17:16;;;;;;;66.78;36.22;;;1.40;99.90;;;;;;5055020;28;20079;-61
2022/12/17 13:19:46;;;;;;;71.13;36.67;;;1.40;99.90;;;;;;5056807;28;20075;-62
2022/12/17 13:22:27;;;;;;;65.60;34.45;;;1.40;99.90;;;;;;5080423;28;20077;-61
2022/12/17 13:25:07;;;;;;;70.80;36.30;;;1.40;99.90;;;;;;5061865;28;20111;-61
2022/12/17 13:27:33;;;;;;;63.92;35.67;;;1.40;99.90;;;;;;5076449;28;20047;-61
2022/12/17 13:30:16;;;;;;;69.57;37.22;;;1.30;99.90;;;;;;5051806;28;20040;-62
2022/12/17 13:33:21;;;;;;;65.25;35.30;;;1.30;99.90;;;;;;5067093;28;20047;-60
2022/12/17 13:36:06;;;;;;;64.40;34.08;;;1.30;99.90;;;;;;5060550;28;20136;-61
2022/12/17 13:38:37;;;;;;;66.70;34.90;;;1.30;99.90;;;;;;5051339;28;20056;-61
2022/12/17 13:41:06;;;;;;;71.13;36.15;;;1.30;99.90;;;;;;5050829;28;20048;-60
2022/12/17 13:43:38;;;;;;;70.53;36.35;;;1.30;99.90;;;;;;5057999;28;20064;-61
2022/12/17 13:46:04;;;;;;;69.25;35.60;;;1.30;99.90;;;;;;5077747;28;20038;-61
2022/12/17 13:48:30;;;;;;;64.32;35.85;;;1.30;99.90;;;;;;5063396;28;20047;-60
2022/12/17 13:50:58;;;;;;;69.28;37.30;;;1.30;99.90;;;;;;5044604;28;20070;-61
2022/12/17 13:53:25;;;;;;;67.72;36.92;;;1.30;99.90;;;;;;5058850;28;20036;-60
2022/12/17 13:55:53;;;;;;;65.50;37.05;;;1.30;99.90;;;;;;5067016;28;20101;-60
2022/12/17 13:58:25;;;;;;;68.80;36.00;;;1.30;99.90;;;;;;5076265;28;20043;-61
2022/12/17 14:01:07;;;;;;;63.10;34.42;;;1.30;99.90;;;;;;5072104;28;20044;-61
2022/12/17 14:03:33;;;;;;;73.25;37.10;;;1.20;99.90;;;;;;5073784;28;20044;-60
2022/12/17 14:05:59;;;;;;;66.53;37.38;;;1.20;99.90;;;;;;5087418;28;20526;-61
2022/12/17 14:08:30;;;;;;;71.10;37.53;;;1.20;99.90;;;;;;5067811;28;20119;-60
2022/12/17 14:12:20;;;;;;;68.78;35.55;;;1.20;99.90;;;;;;5087941;28;20091;-60
2022/12/17 14:13:43;;;;;;;72.00;36.47;;;1.20;99.90;;;;;;5048694;28;20040;-59
2022/12/17 14:16:14;;;;;;;73.63;38.95;;;1.20;99.90;;;;;;5087349;28;20048;-61
2022/12/17 14:18:43;;;;;;;72.40;37.08;;;1.20;99.90;;;;;;5074986;28;20043;-60
2022/12/17 14:21:10;;;;;;;69.85;36.58;;;1.10;99.90;;;;;;5088597;28;20070;-61
2022/12/17 14:23:36;;;;;;;72.97;38.30;;;1.10;99.90;;;;;;5068092;28;20040;-60
2022/12/17 14:26:01;;;;;;;81.43;39.78;;;1.10;99.90;;;;;;5064840;28;20051;-60
2022/12/17 14:28:32;;;;;;;80.25;39.28;;;1.10;99.90;;;;;;5069780;28;20028;-60
2022/12/17 14:31:05;;;;;;;75.00;38.78;;;1.10;99.90;;;;;;5063835;28;20063;-61
2022/12/17 14:33:32;;;;;;;73.65;39.67;;;1.00;99.90;;;;;;5068737;28;20096;-60
2022/12/17 14:36:07;;;;;;;76.95;40.65;;;1.00;99.90;;;;;;5067303;28;20452;-61
2022/12/17 14:38:34;;;;;;;74.55;38.58;;;1.00;99.90;;;;;;5053887;28;20051;-61
2022/12/17 14:44:00;;;;;;;83.82;42.00;;;0.90;99.90;;;;;;5063773;28;20044;-60
2022/12/17 14:46:30;;;;;;;80.32;38.53;;;0.90;99.90;;;;;;5059289;28;20048;-61
2022/12/17 14:49:01;;;;;;;78.80;41.00;;;0.80;99.90;;;;;;5062966;28;20036;-60
2022/12/17 14:51:31;;;;;;;87.15;43.47;;;0.80;99.90;;;;;;5072764;28;20050;-61
2022/12/17 14:54:13;;;;;;;79.40;41.67;;;0.80;99.90;;;;;;5066303;28;20072;-61
2022/12/17 14:56:40;;;;;;;86.97;41.90;;;0.70;99.90;;;;;;5081033;28;20036;-60
2022/12/17 14:59:34;;;;;;;85.10;44.28;;;0.70;99.90;;;;;;5045455;28;20173;-61
2022/12/17 15:02:02;;;;;;;;;;;0.70;99.90;;;;;;5043954;22;20033;-57
2022/12/17 15:04:31;;;;;;;84.05;41.63;;;0.70;99.90;;;;;;5041829;28;19947;-57
2022/12/17 15:06:57;;;;;;;86.22;40.70;;;0.60;99.90;;;;;;5040816;28;20082;-58
2022/12/17 15:09:23;;;;;;;78.95;41.10;;;0.60;99.90;;;;;;5029676;28;20098;-55
2022/12/17 15:11:49;;;;;;;83.72;42.22;;;0.60;99.90;;;;;;5049723;28;20125;-58
2022/12/17 15:14:15;;;;;;;81.68;42.58;;;0.60;99.90;;;;;;5047416;28;20056;-58
2022/12/17 15:16:41;;;;;;;87.97;43.78;;;0.50;99.90;;;;;;5038691;28;20573;-55
2022/12/17 15:19:06;;;;;;;86.78;43.58;;;0.50;99.90;;;;;;5029336;28;20044;-57
2022/12/17 15:21:32;;;;;;;88.78;42.90;;;0.50;99.90;;;;;;5059118;28;20162;-56
2022/12/17 15:23:58;;;;;;;94.47;44.72;;;0.40;99.90;;;;;;5028909;28;20479;-60
2022/12/17 15:26:24;;;;;;;94.90;46.17;;;0.40;99.90;;;;;;5047354;28;20056;-56
2022/12/17 15:28:49;;;;;;;94.38;45.15;;;0.40;99.90;;;;;;5038578;28;20041;-56
2022/12/17 15:31:16;;;;;;;88.85;43.92;;;0.30;99.90;;;;;;5021958;28;20079;-60
2022/12/17 15:33:42;;;;;;;88.38;44.17;;;0.30;99.90;;;;;;5035062;28;20049;-61
2022/12/17 15:36:12;;;;;;;91.57;43.75;;;0.20;99.90;;;;;;5064330;28;20044;-58
2022/12/17 15:38:38;;;;;;;92.38;46.13;;;0.20;99.90;;;;;;5028624;28;22185;-58
2022/12/17 15:43:09;;;;;;;93.97;44.55;;;0.20;99.90;;;;;;5026099;28;20071;-60
2022/12/17 15:43:50;;;;;;;90.53;45.45;;;0.20;99.90;;;;;;5044589;28;20171;-57
2022/12/17 15:46:16;;;;;;;91.75;45.92;;;0.20;99.90;;;;;;5044024;28;20036;-57
2022/12/17 15:48:42;;;;;;;95.40;45.55;;;0.20;99.90;;;;;;5045150;28;20049;-57
2022/12/17 15:51:08;;;;;;;95.28;44.70;;;0.10;99.90;;;;;;5042357;28;20051;-57
2022/12/17 15:53:34;;;;;;;93.60;43.33;;;0.10;99.90;;;;;;5044069;28;20037;-59
2022/12/17 15:56:02;;;;;;;91.18;45.72;;;0.10;99.90;;;;;;5025301;28;20103;-59
2022/12/17 15:58:28;;;;;;;90.03;43.40;;;0.10;99.90;;;;;;5049713;28;20043;-59
2022/12/17 16:00:53;;;;;;;103.40;46.72;;;0.00;99.90;;;;;;5038729;28;20623;-58
2022/12/17 16:03:19;;;;;;;90.85;44.08;;;0.00;99.90;;;;;;5027340;28;20190;-58
2022/12/17 16:05:45;;;;;;;91.57;43.85;;;0.00;99.90;;;;;;5040282;28;20098;-57
2022/12/17 16:08:10;;;;;;;95.60;46.72;;;-0.10;99.90;;;;;;5042581;28;20067;-61
2022/12/17 16:10:36;;;;;;;93.57;45.55;;;-0.10;99.90;;;;;;5043769;28;20051;-60
2022/12/17 16:13:03;;;;;;;100.95;44.67;;;-0.10;99.90;;;;;;5040177;28;20037;-59
2022/12/17 16:15:29;;;;;;;90.65;44.08;;;-0.20;99.90;;;;;;5044083;28;20298;-60
2022/12/17 16:17:55;;;;;;;94.85;46.75;;;-0.20;99.90;;;;;;5025877;28;20036;-59
2022/12/17 16:20:21;;;;;;;93.50;44.47;;;-0.30;99.90;;;;;;5041476;28;20467;-58
2022/12/17 16:22:46;;;;;;;93.22;44.55;;;-0.30;99.90;;;;;;5040412;28;20203;-60
2022/12/17 16:25:12;;;;;;;91.68;45.80;;;-0.30;99.90;;;;;;5040113;28;20134;-61
2022/12/17 16:27:40;;;;;;;88.38;44.15;;;-0.20;99.90;;;;;;5038103;28;20130;-60
2022/12/17 16:30:07;;;;;;;92.57;43.47;;;-0.30;99.90;;;;;;5038804;28;20033;-59
2022/12/17 16:32:32;;;;;;;91.47;42.47;;;-0.30;99.90;;;;;;5043551;28;20075;-60
2022/12/17 16:34:58;;;;;;;91.97;43.00;;;-0.30;99.90;;;;;;5025895;28;20440;-59
2022/12/17 16:37:24;;;;;;;91.93;44.40;;;-0.30;99.90;;;;;;5023709;28;20431;-59
2022/12/17 16:39:50;;;;;;;94.85;43.75;;;-0.40;99.90;;;;;;5052007;28;20044;-58
2022/12/17 16:42:16;;;;;;;91.93;42.97;;;-0.40;99.90;;;;;;5024235;28;20044;-60
2022/12/17 16:44:42;;;;;;;91.83;41.83;;;-0.40;99.90;;;;;;5043228;28;20117;-57
2022/12/17 16:47:09;;;;;;;98.53;43.50;;;-0.40;99.90;;;;;;5042059;28;20072;-60
2022/12/17 16:49:35;;;;;;;93.70;43.50;;;-0.50;99.90;;;;;;5024278;28;20052;-59
2022/12/17 16:52:02;;;;;;;88.27;42.27;;;-0.50;99.90;;;;;;5044496;28;20040;-57
2022/12/17 16:54:30;;;;;;;89.03;41.40;;;-0.50;99.90;;;;;;5035477;28;20123;-59
2022/12/17 16:56:56;;;;;;;81.67;40.03;;;-0.50;99.90;;;;;;5040107;28;20083;-56
2022/12/17 16:59:22;;;;;;;90.33;42.07;;;-0.50;99.90;;;;;;5043558;28;20041;-57
2022/12/17 17:01:49;;;;;;;84.60;40.03;;;-0.50;99.90;;;;;;5042664;28;20040;-58
2022/12/17 17:04:17;;;;;;;90.70;41.93;;;-0.80;99.90;;;;;;5045035;28;20040;-59
2022/12/17 17:06:46;;;;;;;91.60;42.15;;;-0.60;99.90;;;;;;5050168;28;20321;-58
2022/12/17 17:09:12;;;;;;;89.57;41.63;;;-0.60;99.90;;;;;;5040375;28;20052;-59
2022/12/17 17:11:38;;;;;;;85.20;40.73;;;-0.60;99.90;;;;;;5058852;28;20036;-59
2022/12/17 17:14:06;;;;;;;95.85;42.70;;;-0.60;99.90;;;;;;5036739;28;20033;-59
2022/12/17 17:16:35;;;;;;;91.90;43.07;;;-0.70;99.90;;;;;;5044820;28;20111;-60
2022/12/17 17:19:02;;;;;;;94.68;43.05;;;-0.70;99.90;;;;;;5043416;28;20139;-60
2022/12/17 17:21:28;;;;;;;98.10;42.57;;;-0.70;99.90;;;;;;5044279;28;20113;-59
2022/12/17 17:24:00;;;;;;;87.27;40.33;;;-0.70;99.90;;;;;;5017401;28;20483;-59
2022/12/17 17:26:27;;;;;;;84.97;41.37;;;-0.70;99.90;;;;;;5027730;28;20067;-59
2022/12/17 17:28:53;;;;;;;86.33;40.33;;;-0.80;99.90;;;;;;5022099;28;20521;-60
2022/12/17 17:31:19;;;;;;;95.27;43.37;;;-0.80;99.90;;;;;;5028113;28;20131;-60
2022/12/17 17:33:47;;;;;;;91.20;41.40;;;-0.80;99.90;;;;;;5017964;28;20044;-56
2022/12/17 17:36:21;;;;;;;92.43;40.53;;;-0.80;99.90;;;;;;5045344;28;20037;-54
2022/12/17 17:38:49;;;;;;;87.20;40.67;;;-0.80;99.90;;;;;;5050347;28;20399;-58
2022/12/17 17:41:18;;;;;;;86.85;40.22;;;-0.90;99.90;;;;;;5041333;28;20048;-56
2022/12/17 17:43:44;;;;;;;93.83;41.63;;;-0.80;99.90;;;;;;5035901;28;20041;-56
2022/12/17 17:46:15;;;;;;;88.97;40.77;;;-0.90;99.90;;;;;;5044260;28;20032;-60
2022/12/17 17:48:43;;;;;;;97.87;41.37;;;-0.90;99.90;;;;;;5037049;28;20039;-57
2022/12/17 17:51:17;;;;;;;92.80;41.90;;;-0.90;99.90;;;;;;5055354;28;20029;-54
2022/12/17 17:53:43;;;;;;;93.28;44.47;;;-1.00;99.90;;;;;;5042913;28;20547;-56
2022/12/17 17:56:16;;;;;;;92.33;41.73;;;-1.00;99.90;;;;;;5050427;28;20572;-56
2022/12/17 17:58:50;;;;;;;91.70;41.53;;;-0.90;99.90;;;;;;5032528;28;20041;-59
2022/12/17 18:01:25;;;;;;;93.43;43.73;;;-1.00;99.90;;;;;;5043612;28;20040;-60
2022/12/17 18:03:54;;;;;;;89.17;42.57;;;-1.00;99.90;;;;;;5061811;28;20037;-59
2022/12/17 18:06:20;;;;;;;88.57;39.50;;;-1.00;99.90;;;;;;5046836;28;20080;-58
2022/12/17 18:08:46;;;;;;;90.30;42.37;;;-1.00;99.90;;;;;;5036212;28;20094;-57
2022/12/17 18:11:15;;;;;;;99.00;42.70;;;-1.00;99.90;;;;;;5048210;28;20415;-60
2022/12/17 18:13:54;;;;;;;88.80;40.70;;;-1.00;99.90;;;;;;5034061;28;20047;-59
2022/12/17 18:16:23;;;;;;;94.90;41.77;;;-1.00;99.90;;;;;;5051449;28;20072;-56
2022/12/17 18:18:49;;;;;;;93.57;40.70;;;-1.00;99.90;;;;;;5043371;28;20032;-59
2022/12/17 18:21:17;;;;;;;87.40;40.70;;;-1.00;99.90;;;;;;5051177;28;20124;-59
2022/12/17 18:23:44;;;;;;;95.37;39.57;;;-1.10;99.90;;;;;;5056403;28;20040;-56
2022/12/17 18:26:12;;;;;;;100.37;42.77;;;-1.10;99.90;;;;;;5049007;28;20123;-58
2022/12/17 18:28:39;;;;;;;90.00;41.10;;;-1.10;99.90;;;;;;5044806;28;20036;-58
2022/12/17 18:31:17;;;;;;;92.57;40.67;;;-1.10;99.90;;;;;;5043432;28;20036;-57
2022/12/17 18:33:46;;;;;;;87.10;40.37;;;-1.10;99.90;;;;;;5046305;28;20105;-56
2022/12/17 18:36:18;;;;;;;99.73;41.23;;;-1.10;99.90;;;;;;5053592;28;20056;-59
2022/12/17 18:38:44;;;;;;;92.17;42.27;;;-1.10;99.90;;;;;;5047931;28;20048;-55
2022/12/17 18:44:01;;;;;;;89.00;40.50;;;-1.20;99.90;;;;;;5052474;28;20589;-57
2022/12/17 18:46:27;;;;;;;92.83;42.37;;;-1.20;99.90;;;;;;5043356;28;20102;-57
2022/12/17 18:49:00;;;;;;;96.23;40.10;;;-1.20;99.90;;;;;;5042548;28;20047;-53
2022/12/17 18:51:27;;;;;;;89.60;41.75;;;-1.20;99.90;;;;;;5050952;28;20036;-56
2022/12/17 18:54:05;;;;;;;101.17;41.53;;;-1.20;99.90;;;;;;5045282;28;20044;-56
2022/12/17 18:56:32;;;;;;;94.47;43.37;;;-1.20;99.90;;;;;;5053026;28;20072;-58
2022/12/17 18:58:58;;;;;;;95.90;41.43;;;-1.20;99.90;;;;;;5055073;28;20518;-58
2022/12/17 19:01:26;;;;;;;95.23;41.57;;;-1.30;99.90;;;;;;5047366;28;20059;-57
2022/12/17 19:03:53;;;;;;;95.83;43.93;;;-1.30;99.90;;;;;;5057584;28;20040;-60
2022/12/17 19:06:20;;;;;;;94.70;40.10;;;-1.30;99.90;;;;;;5028140;28;20459;-59
2022/12/17 19:08:47;;;;;;;99.30;42.87;;;-1.30;99.90;;;;;;5011302;28;20048;-60
2022/12/17 19:11:13;;;;;;;92.20;39.30;;;-1.30;99.90;;;;;;5033475;28;20071;-60
2022/12/17 19:13:39;;;;;;;89.63;40.17;;;-1.30;99.90;;;;;;5049276;28;20052;-59
2022/12/17 19:16:14;;;;;;;100.13;44.13;;;-1.40;99.90;;;;;;5016163;28;20044;-60
2022/12/17 19:18:40;;;;;;;97.20;41.23;;;-1.40;99.90;;;;;;5038205;28;20518;-58
2022/12/17 19:21:07;;;;;;;96.83;40.83;;;-1.40;99.90;;;;;;5044512;28;20045;-59
2022/12/17 19:23:33;;;;;;;94.33;39.63;;;-1.40;99.90;;;;;;5040491;28;20281;-58
2022/12/17 19:26:14;;;;;;;95.57;40.90;;;-1.40;99.90;;;;;;5034292;28;20063;-60
2022/12/17 19:28:46;;;;;;;93.40;41.77;;;-1.40;99.90;;;;;;5053653;28;20055;-59
2022/12/17 19:31:12;;;;;;;97.17;40.57;;;-1.50;99.90;;;;;;5043570;28;20044;-58
2022/12/17 19:33:38;;;;;;;96.67;41.93;;;-1.50;99.90;;;;;;5034739;28;20044;-60
2022/12/17 19:36:12;;;;;;;96.37;40.00;;;-1.50;99.90;;;;;;5027094;28;20040;-60
2022/12/17 19:38:38;;;;;;;94.97;40.70;;;-1.50;99.90;;;;;;5047281;28;20044;-59
2022/12/17 19:41:06;;;;;;;87.17;39.53;;;-1.60;99.90;;;;;;5044362;28;20119;-60
2022/12/17 19:43:32;;;;;;;100.30;40.57;;;-1.60;99.90;;;;;;5035439;28;20036;-59
2022/12/17 19:46:10;;;;;;;104.37;40.07;;;-1.60;99.90;;;;;;5044818;28;20400;-59
2022/12/17 19:48:37;;;;;;;90.60;38.97;;;-1.60;99.90;;;;;;5046986;28;20351;-56
2022/12/17 19:51:05;;;;;;;102.00;42.00;;;-1.60;99.90;;;;;;5020544;28;20565;-58
2022/12/17 19:53:32;;;;;;;99.20;40.07;;;-1.60;99.90;;;;;;5040293;28;20434;-56
2022/12/17 19:56:09;;;;;;;99.40;42.60;;;-1.60;99.90;;;;;;5043129;28;20072;-60
2022/12/17 19:58:35;;;;;;;97.17;41.03;;;-1.70;99.90;;;;;;5049811;28;20445;-60
2022/12/17 20:01:15;;;;;;;92.73;38.30;;;-1.60;99.90;;;;;;5043417;28;20062;-59
2022/12/17 20:03:42;;;;;;;97.23;39.70;;;-1.70;99.90;;;;;;5048522;28;20044;-59
2022/12/17 20:06:09;;;;;;;94.53;39.23;;;-1.70;99.90;;;;;;5028979;28;20056;-59
2022/12/17 20:08:36;;;;;;;95.20;38.73;;;-1.70;99.90;;;;;;5049729;28;20040;-60
2022/12/17 20:13:56;;;;;;;93.47;38.73;;;-1.70;99.90;;;;;;5051729;28;20495;-56
2022/12/17 20:16:22;;;;;;;91.60;40.00;;;-1.70;99.90;;;;;;5038652;28;20439;-56
2022/12/17 20:18:47;;;;;;;91.77;40.83;;;-1.70;99.90;;;;;;5060368;28;20058;-56
2022/12/17 20:21:13;;;;;;;92.10;39.20;;;-1.70;99.90;;;;;;5041367;28;20071;-58
2022/12/17 20:23:39;;;;;;;97.43;42.90;;;-1.70;99.90;;;;;;5050367;28;20135;-56
2022/12/17 20:26:08;;;;;;;96.27;40.00;;;-1.70;99.90;;;;;;5054033;28;20040;-57
2022/12/17 20:28:34;;;;;;;97.30;40.60;;;-1.70;99.90;;;;;;5039149;28;20036;-58
2022/12/17 20:31:01;;;;;;;94.47;38.87;;;-1.70;99.90;;;;;;5042032;28;20059;-55
2022/12/17 20:33:26;;;;;;;90.87;38.23;;;-1.70;99.90;;;;;;5050046;28;20410;-59
2022/12/17 20:35:52;;;;;;;94.37;40.03;;;-1.70;99.90;;;;;;5047403;28;20036;-58
2022/12/17 20:38:19;;;;;;;97.03;40.63;;;-1.70;99.90;;;;;;5044374;28;20040;-59
2022/12/17 20:40:44;;;;;;;95.27;40.50;;;-1.70;99.90;;;;;;5046921;28;20044;-57
2022/12/17 20:43:10;;;;;;;95.03;38.90;;;-1.70;99.90;;;;;;5044595;28;20037;-53
2022/12/17 20:45:36;;;;;;;103.27;40.37;;;-1.70;99.90;;;;;;5042500;28;20044;-58
2022/12/17 20:48:02;;;;;;;96.23;40.70;;;-1.70;99.90;;;;;;5054497;28;20044;-58
2022/12/17 20:50:28;;;;;;;90.37;37.27;;;-1.70;99.90;;;;;;5058745;28;20048;-56
2022/12/17 20:52:53;;;;;;;97.50;38.90;;;-1.70;99.90;;;;;;5047231;28;20044;-57
2022/12/17 20:55:19;;;;;;;105.97;43.10;;;-1.80;99.90;;;;;;5032441;28;20512;-56
2022/12/17 20:57:45;;;;;;;92.30;39.67;;;-1.70;99.90;;;;;;5041972;28;20057;-57
2022/12/17 21:00:11;;;;;;;96.30;38.03;;;-1.70;99.90;;;;;;5016644;28;20688;-56
2022/12/17 21:02:37;;;;;;;98.70;39.47;;;-1.70;99.90;;;;;;5043775;22;20127;-62
2022/12/17 21:05:04;;;;;;;106.70;45.90;;;-1.70;99.90;;;;;;5059359;28;20523;-59
2022/12/17 21:07:30;;;;;;;94.13;39.87;;;-1.70;99.90;;;;;;5058422;28;20063;-59
2022/12/17 21:09:56;;;;;;;97.60;41.47;;;-1.70;99.90;;;;;;5051509;28;20743;-60
2022/12/17 21:12:22;;;;;;;96.67;40.07;;;-1.70;99.90;;;;;;5078410;27;20494;-60
2022/12/17 21:14:47;;;;;;;96.67;40.10;;;-1.70;99.90;;;;;;5036850;28;20044;-59
2022/12/17 21:17:13;;;;;;;89.50;38.50;;;-1.80;99.90;;;;;;5049763;28;20043;-60
2022/12/17 21:19:39;;;;;;;96.10;39.70;;;-1.80;99.90;;;;;;5051965;28;20044;-60
2022/12/17 21:22:06;;;;;;;99.47;42.17;;;-1.70;99.90;;;;;;5066257;28;20080;-60
2022/12/17 21:24:32;;;;;;;94.67;40.63;;;-1.70;99.90;;;;;;5054606;28;22849;-60
2022/12/17 21:26:58;;;;;;;95.47;41.90;;;-1.80;99.90;;;;;;5037251;28;20062;-60
2022/12/17 21:29:23;;;;;;;90.73;39.53;;;-1.80;99.90;;;;;;5050897;28;21992;-60
2022/12/17 21:31:51;;;;;;;94.33;40.53;;;-1.80;99.90;;;;;;5049538;28;20060;-60
2022/12/17 21:34:21;;;;;;;96.23;40.57;;;-1.80;99.90;;;;;;5052812;28;20402;-60
2022/12/17 21:36:49;;;;;;;91.33;41.00;;;-1.90;99.90;;;;;;5084656;27;21792;-60
2022/12/17 21:39:17;;;;;;;91.80;39.53;;;-1.90;99.90;;;;;;5044580;28;20549;-60
2022/12/17 21:43:00;;;;;;;92.83;40.73;;;-1.90;99.90;;;;;;5056045;28;20857;-60
2022/12/17 21:44:29;;;;;;;96.17;42.00;;;-1.90;99.90;;;;;;5059934;28;20056;-60
2022/12/17 21:46:55;;;;;;;96.73;41.10;;;-1.90;99.90;;;;;;5046270;28;20044;-60
2022/12/17 21:49:21;;;;;;;88.50;39.93;;;-1.90;99.90;;;;;;5032609;28;20395;-59
2022/12/17 21:51:46;;;;;;;86.70;38.83;;;-1.90;99.90;;;;;;5059895;28;20371;-59
2022/12/17 21:54:12;;;;;;;95.37;40.70;;;-1.90;99.90;;;;;;5044252;28;20071;-60
2022/12/17 21:56:38;;;;;;;93.50;42.87;;;-1.90;99.90;;;;;;5036702;28;20052;-60
2022/12/17 21:59:03;;;;;;;86.20;37.93;;;-2.00;99.90;;;;;;5054178;28;20395;-60
2022/12/17 22:01:32;;;;;;;87.67;37.20;;;-1.90;99.90;;;;;;5032274;28;20325;-61
2022/12/17 22:03:59;;;;;;;90.27;38.70;;;-2.00;99.90;;;;;;5051326;28;20048;-60
2022/12/17 22:06:26;;;;;;;89.97;39.63;;;-2.00;99.90;;;;;;5055079;28;20573;-60
2022/12/17 22:08:52;;;;;;;93.63;40.27;;;-1.90;99.90;;;;;;5050299;28;20083;-60
2022/12/17 22:11:22;;;;;;;99.30;39.37;;;-2.00;99.90;;;;;;5059823;28;20045;-60
2022/12/17 22:14:05;;;;;;;92.10;41.00;;;-2.00;99.90;;;;;;5053702;28;20132;-60
2022/12/17 22:16:39;;;;;;;103.37;42.90;;;-2.00;99.90;;;;;;5029667;28;20120;-60
2022/12/17 22:19:04;;;;;;;94.10;40.80;;;-2.00;99.90;;;;;;5038797;28;20155;-60
2022/12/17 22:21:35;;;;;;;87.83;39.50;;;-2.00;99.90;;;;;;5055698;28;20070;-60
2022/12/17 22:24:01;;;;;;;87.20;38.33;;;-2.00;99.90;;;;;;5055616;28;20049;-60
2022/12/17 22:26:27;;;;;;;91.27;40.53;;;-2.00;99.90;;;;;;5049471;28;20491;-60
2022/12/17 22:28:52;;;;;;;86.07;38.50;;;-2.00;99.90;;;;;;5051886;28;20095;-60
2022/12/17 22:34:05;;;;;;;103.13;42.53;;;-2.00;99.90;;;;;;5053110;28;20053;-61
2022/12/17 22:36:32;;;;;;;94.93;38.23;;;-2.00;99.90;;;;;;5059286;28;20522;-62
2022/12/17 22:38:59;;;;;;;93.83;40.73;;;-2.00;99.90;;;;;;5038339;28;20048;-61
2022/12/17 22:44:09;;;;;;;97.97;41.80;;;-2.00;99.90;;;;;;5054440;28;20048;-61
2022/12/17 22:46:35;;;;;;;98.10;42.47;;;-2.00;99.90;;;;;;5084888;27;20078;-61
2022/12/17 22:49:01;;;;;;;97.80;42.40;;;-2.00;99.90;;;;;;5054583;28;21216;-60
2022/12/17 22:51:26;;;;;;;90.13;38.63;;;-2.00;99.90;;;;;;5053668;28;20040;-60
2022/12/17 22:53:52;;;;;;;101.57;40.47;;;-2.00;99.90;;;;;;5050200;28;20040;-60
2022/12/17 22:56:19;;;;;;;93.40;40.80;;;-2.00;99.90;;;;;;5047642;28;20040;-60
2022/12/17 22:58:45;;;;;;;94.50;40.33;;;-2.00;99.90;;;;;;5063896;28;20875;-61
2022/12/17 23:01:11;;;;;;;100.43;41.13;;;-2.00;99.90;;;;;;5057698;28;20048;-61
2022/12/17 23:03:37;;;;;;;85.00;36.87;;;-2.00;99.90;;;;;;5056408;28;20036;-61
2022/12/17 23:06:08;;;;;;;89.43;38.03;;;-2.00;99.90;;;;;;5056256;28;20101;-61
2022/12/17 23:08:34;;;;;;;97.90;40.63;;;-2.00;99.90;;;;;;5050820;28;20714;-61
2022/12/17 23:11:18;;;;;;;97.90;40.87;;;-2.00;99.90;;;;;;5054153;28;20036;-60
2022/12/17 23:13:45;;;;;;;91.15;39.10;;;-2.00;99.90;;;;;;5055729;28;20048;-60
2022/12/17 23:16:12;;;;;;;82.47;40.40;;;-2.00;99.90;;;;;;5049744;28;20202;-60
2022/12/17 23:18:39;;;;;;;93.80;40.10;;;-2.00;99.90;;;;;;5031340;28;20546;-59
2022/12/17 23:21:17;;;;;;;97.73;41.17;;;-2.00;99.90;;;;;;5084561;27;20044;-60
2022/12/17 23:23:44;;;;;;;84.90;38.53;;;-2.00;99.90;;;;;;5049258;28;20044;-60
2022/12/17 23:26:22;;;;;;;96.20;38.63;;;-2.00;99.90;;;;;;5059219;28;20141;-59
2022/12/17 23:28:53;;;;;;;93.53;39.80;;;-2.00;99.90;;;;;;5042474;28;20076;-60
2022/12/17 23:31:20;;;;;;;90.00;38.60;;;-2.00;99.90;;;;;;5051278;28;20098;-59
2022/12/17 23:33:45;;;;;;;96.20;40.03;;;-2.00;99.90;;;;;;5054505;28;20131;-60
2022/12/17 23:36:14;;;;;;;91.20;39.60;;;-2.00;99.90;;;;;;5028334;28;20047;-60
2022/12/17 23:38:41;;;;;;;89.63;38.47;;;-2.00;99.90;;;;;;5065232;28;20048;-60
2022/12/17 23:41:13;;;;;;;103.03;42.53;;;-1.90;99.90;;;;;;5023814;28;20407;-60
2022/12/17 23:43:39;;;;;;;91.50;39.10;;;-2.00;99.90;;;;;;5053850;28;20054;-60
2022/12/17 23:46:06;;;;;;;103.43;41.10;;;-2.00;99.90;;;;;;5085439;27;20045;-60
2022/12/17 23:48:40;;;;;;;91.93;38.00;;;-2.00;99.90;;;;;;5036491;28;20044;-60
2022/12/17 23:51:07;;;;;;;97.43;41.37;;;-2.00;99.90;;;;;;5054305;28;20075;-60
2022/12/17 23:53:35;;;;;;;105.53;42.93;;;-2.00;99.90;;;;;;5050964;28;20124;-60
2022/12/17 23:56:05;;;;;;;91.67;39.93;;;-2.00;99.90;;;;;;5051757;28;20201;-60
2022/12/17 23:58:32;;;;;;;88.67;39.97;;;-2.00;99.90;;;;;;5051295;28;20538;-59
